createdAt,value
2023-02-03T00:01:08.589Z,100680.75
2023-02-03T00:05:11.652Z,100692.03
2023-02-03T00:09:16.411Z,100696.38
2023-02-03T00:13:19.487Z,100698.97
2023-02-03T00:17:23.934Z,100696.44
2023-02-03T00:21:27.147Z,100706.72
2023-02-03T00:25:30.172Z,100706.72
2023-02-03T00:29:33.270Z,100711.06
2023-02-03T00:33:39.094Z,100713.72
2023-02-03T00:37:42.193Z,100713.72
2023-02-03T00:41:45.617Z,100708.38
2023-02-03T00:45:48.892Z,100710.84
2023-02-03T00:49:53.327Z,100715.22
2023-02-03T00:53:56.350Z,100721.19
2023-02-03T00:57:59.432Z,100723.72
2023-02-03T01:02:02.483Z,100710.75
2023-02-03T01:06:15.576Z,100715.09
2023-02-03T01:10:19.029Z,100709.88
2023-02-03T01:14:22.213Z,100704.66
2023-02-03T01:18:25.217Z,100701.91
2023-02-03T01:22:30.585Z,100701.03
2023-02-03T01:26:33.662Z,100695.69
2023-02-03T01:30:36.983Z,100691.91
2023-02-03T01:34:40.578Z,100690.81
2023-02-03T01:38:45.579Z,100684.66
2023-02-03T01:48:49.205Z,100657.50
2023-02-03T01:52:57.492Z,100658.34
2023-02-03T01:57:05.738Z,100653.16
2023-02-03T02:01:09.482Z,100653.16
2023-02-03T02:05:17.191Z,100647.94
2023-02-03T02:09:20.348Z,100647.94
2023-02-03T02:13:26.731Z,100651.44
2023-02-03T02:17:47.329Z,100638.41
2023-02-03T02:22:02.229Z,100627.22
2023-02-03T02:26:46.705Z,100624.56
2023-02-03T02:31:15.411Z,100630.53
2023-02-03T02:35:29.687Z,100613.88
2023-02-03T02:39:39.920Z,100616.34
2023-02-03T02:43:51.162Z,100606.00
2023-02-03T02:48:02.264Z,100600.06
2023-02-03T02:52:09.298Z,100602.69
2023-02-03T02:56:15.652Z,100606.13
2023-02-03T03:00:19.675Z,100607.03
2023-02-03T03:04:25.657Z,100586.97
2023-02-03T03:08:36.344Z,100569.69
2023-02-03T03:12:46.641Z,100567.91
2023-02-03T03:16:54.385Z,100569.56
2023-02-03T03:21:05.915Z,100569.56
2023-02-03T03:25:16.658Z,100579.00
2023-02-03T03:29:22.636Z,100582.16
2023-02-03T03:33:25.681Z,100575.88
2023-02-03T03:37:35.262Z,100577.53
2023-02-03T03:41:49.485Z,100564.28
2023-02-03T03:45:57.142Z,100570.25
2023-02-03T03:50:02.532Z,100575.41
2023-02-03T03:54:09.679Z,100576.41
2023-02-03T03:58:18.027Z,100599.06
2023-02-03T04:02:23.688Z,100601.91
2023-02-03T04:06:26.674Z,100608.94
2023-02-03T04:10:33.087Z,100588.34
2023-02-03T04:14:39.249Z,100568.66
2023-02-03T04:18:42.281Z,100571.59
2023-02-03T04:22:45.246Z,100570.09
2023-02-03T04:26:48.215Z,100546.88
2023-02-03T04:30:52.582Z,100536.38
2023-02-03T04:34:55.507Z,100536.38
2023-02-03T04:38:58.679Z,100526.91
2023-02-03T04:43:07.202Z,100528.69
2023-02-03T04:47:11.542Z,100524.50
2023-02-03T04:51:14.478Z,100529.72
2023-02-03T04:55:17.662Z,100514.09
2023-02-03T04:59:20.578Z,100509.84
2023-02-03T05:03:26.228Z,100514.97
2023-02-03T05:07:29.435Z,100511.44
2023-02-03T05:11:32.379Z,100509.53
2023-02-03T05:15:35.292Z,100508.75
2023-02-03T05:19:39.691Z,100497.59
2023-02-03T05:23:42.768Z,100494.00
2023-02-03T05:27:45.832Z,100487.78
2023-02-03T05:31:48.826Z,100485.25
2023-02-03T05:35:53.214Z,100467.88
2023-02-03T05:40:16.383Z,100473.81
2023-02-03T05:44:19.526Z,100469.50
2023-02-03T05:48:22.484Z,100464.28
2023-02-03T05:52:26.734Z,100466.16
2023-02-03T05:56:29.833Z,100460.16
2023-02-03T06:00:32.754Z,100468.22
2023-02-03T06:04:35.728Z,100452.69
2023-02-03T06:08:40.063Z,100443.13
2023-02-03T06:12:43.006Z,100446.69
2023-02-03T06:16:45.955Z,100434.56
2023-02-03T06:20:49.162Z,100432.00
2023-02-03T06:24:53.679Z,100425.19
2023-02-03T06:28:56.604Z,100420.97
2023-02-03T06:32:59.555Z,100411.38
2023-02-03T06:37:02.802Z,100417.59
2023-02-03T06:41:07.177Z,100416.78
2023-02-03T06:45:11.049Z,100415.13
2023-02-03T06:49:13.959Z,100408.38
2023-02-03T06:53:16.933Z,100398.06
2023-02-03T06:57:21.560Z,100405.16
2023-02-03T07:01:26.020Z,100395.75
2023-02-03T07:05:29.064Z,100389.84
2023-02-03T07:09:32.040Z,100381.38
2023-02-03T07:13:36.331Z,100384.97
2023-02-03T07:17:39.251Z,100380.84
2023-02-03T07:21:42.294Z,100377.56
2023-02-03T07:25:45.184Z,100364.78
2023-02-03T07:29:49.515Z,100363.22
2023-02-03T07:33:52.427Z,100363.53
2023-02-03T07:37:55.533Z,100351.56
2023-02-03T07:41:58.592Z,100357.84
2023-02-03T07:46:05.607Z,100351.94
2023-02-03T07:50:09.400Z,100340.78
2023-02-03T07:54:12.399Z,100333.13
2023-02-03T07:58:17.106Z,100320.38
2023-02-03T08:02:21.367Z,100318.88
2023-02-03T08:06:24.391Z,100315.63
2023-02-03T08:10:27.583Z,100321.91
2023-02-03T08:14:31.325Z,100310.06
2023-02-03T08:18:35.617Z,100301.59
2023-02-03T08:22:38.691Z,100285.22
2023-02-03T08:26:48.646Z,100280.28
2023-02-03T08:30:52.313Z,100267.44
2023-02-03T08:34:56.728Z,100263.34
2023-02-03T08:38:59.729Z,100245.22
2023-02-03T08:43:02.685Z,100246.34
2023-02-03T08:47:06.619Z,100246.53
2023-02-03T08:51:16.720Z,100229.28
2023-02-03T08:55:19.825Z,100233.75
2023-02-03T08:59:23.048Z,100225.22
2023-02-03T09:03:26.836Z,100218.41
2023-02-03T09:07:31.277Z,100211.59
2023-02-03T09:11:34.341Z,100215.16
2023-02-03T09:15:38.183Z,100229.22
2023-02-03T09:19:41.183Z,100211.94
2023-02-03T09:23:46.290Z,100219.97
2023-02-03T09:27:49.276Z,100205.38
2023-02-03T09:31:53.736Z,100190.69
2023-02-03T09:35:57.762Z,100187.34
2023-02-03T09:40:02.543Z,100194.56
2023-02-03T09:44:13.249Z,100179.03
2023-02-03T09:48:19.779Z,100182.69
2023-02-03T09:52:25.246Z,100169.84
2023-02-03T09:56:33.394Z,100170.88
2023-02-03T10:00:41.469Z,100160.56
2023-02-03T10:04:55.461Z,100163.31
2023-02-03T10:09:12.894Z,100152.09
2023-02-03T10:13:29.551Z,100126.09
2023-02-03T10:17:39.125Z,100131.44
2023-02-03T10:21:45.888Z,100096.69
2023-02-03T10:25:57.112Z,100111.72
2023-02-03T10:30:06.263Z,100092.66
2023-02-03T10:34:12.083Z,100078.78
2023-02-03T10:38:18.928Z,100068.34
2023-02-03T10:42:23.219Z,100092.03
2023-02-03T10:46:31.286Z,100080.75
2023-02-03T10:50:34.262Z,100076.41
2023-02-03T10:54:38.292Z,100085.22
2023-02-03T10:58:49.295Z,100076.53
2023-02-03T11:03:05.670Z,100046.03
2023-02-03T11:07:24.338Z,100073.97
2023-02-03T11:11:31.425Z,100044.31
2023-02-03T11:15:34.498Z,100042.59
2023-02-03T11:19:40.417Z,100042.66
2023-02-03T11:24:05.904Z,100032.19
2023-02-03T11:28:12.787Z,100027.78
2023-02-03T11:32:21.568Z,100049.59
2023-02-03T11:36:29.301Z,100041.56
2023-02-03T11:40:34.227Z,100016.09
2023-02-03T11:44:37.331Z,99993.28
2023-02-03T11:48:48.641Z,99982.72
2023-02-03T11:53:14.459Z,99977.44
2023-02-03T11:57:35.254Z,99959.09
2023-02-03T12:01:55.336Z,99931.22
2023-02-03T12:06:45.585Z,99941.69
2023-02-03T12:11:02.267Z,99905.75
2023-02-03T12:15:21.952Z,99898.63
2023-02-03T12:19:39.811Z,99907.19
2023-02-03T12:23:50.796Z,99903.59
2023-02-03T12:28:07.067Z,99878.22
2023-02-03T12:32:19.777Z,99849.34
2023-02-03T12:36:27.572Z,99825.75
2023-02-03T12:40:37.908Z,99824.91
2023-02-03T12:44:48.831Z,99784.91
2023-02-03T12:48:59.149Z,99783.25
2023-02-03T12:53:06.993Z,99730.97
2023-02-03T12:57:19.471Z,99734.41
2023-02-03T13:01:25.809Z,99730.06
2023-02-03T13:05:37.145Z,99719.50
2023-02-03T13:09:48.845Z,99723.03
2023-02-03T13:13:56.183Z,99710.81
2023-02-03T13:18:06.444Z,99708.25
2023-02-03T13:22:13.366Z,99689.13
2023-02-03T13:26:41.287Z,99680.41
2023-02-03T13:31:15.739Z,99656.03
2023-02-03T13:35:40.863Z,99634.22
2023-02-03T13:39:56.521Z,99660.44
2023-02-03T13:44:00.585Z,99671.75
2023-02-03T13:48:11.843Z,99655.88
2023-02-03T13:52:28.543Z,99686.34
2023-02-03T13:56:33.369Z,99711.69
2023-02-03T14:01:03.491Z,99709.03
2023-02-03T14:05:15.962Z,99723.75
2023-02-03T14:09:23.730Z,99707.84
2023-02-03T14:13:26.992Z,99727.75
2023-02-03T14:17:58.567Z,99745.97
2023-02-03T14:22:05.052Z,99752.91
2023-02-03T14:26:19.494Z,99758.00
2023-02-03T14:30:22.476Z,99738.75
2023-02-03T14:34:37.019Z,99739.53
2023-02-03T14:38:40.293Z,99728.97
2023-02-03T14:43:15.831Z,99738.59
2023-02-03T14:47:35.052Z,99733.31
2023-02-03T14:51:53.171Z,99731.53
2023-02-03T14:56:11.135Z,99715.84
2023-02-03T15:00:31.456Z,99709.78
2023-02-03T15:04:34.575Z,99693.19
2023-02-03T15:08:42.702Z,99684.47
2023-02-03T15:12:47.898Z,99684.44
2023-02-03T15:16:56.130Z,99687.88
2023-02-03T15:20:59.545Z,99668.75
2023-02-03T15:25:04.483Z,99687.88
2023-02-03T15:29:08.004Z,99693.13
2023-02-03T15:33:16.352Z,99679.19
2023-02-03T15:37:24.731Z,99680.94
2023-02-03T15:41:28.129Z,99660.97
2023-02-03T15:45:35.384Z,99647.06
2023-02-03T15:49:43.552Z,99660.19
2023-02-03T15:53:56.218Z,99639.31
2023-02-03T15:57:59.481Z,99636.75
2023-02-03T16:02:07.977Z,99621.97
2023-02-03T16:06:19.832Z,99621.19
2023-02-03T16:10:32.806Z,99586.34
2023-02-03T16:14:37.560Z,99616.84
2023-02-03T16:18:41.526Z,99552.34
2023-02-03T16:22:47.536Z,99576.75
2023-02-03T16:26:50.569Z,99564.59
2023-02-03T16:31:13.766Z,99548.88
2023-02-03T16:35:34.560Z,99544.53
2023-02-03T16:39:56.193Z,99545.41
2023-02-03T16:44:16.987Z,99542.00
2023-02-03T16:48:37.209Z,99554.25
2023-02-03T16:52:40.375Z,99549.06
2023-02-03T16:56:44.795Z,99549.13
2023-02-03T17:00:50.339Z,99557.00
2023-02-03T17:04:53.369Z,99536.94
2023-02-03T17:08:58.734Z,99568.44
2023-02-03T17:13:03.486Z,99550.13
2023-02-03T17:17:06.469Z,99559.75
2023-02-03T17:21:12.070Z,99551.06
2023-02-03T17:25:15.062Z,99580.75
2023-02-03T17:29:19.647Z,99588.56
2023-02-03T17:33:24.193Z,99571.09
2023-02-03T17:37:27.154Z,99577.13
2023-02-03T17:54:33.260Z,99714.97
2023-02-03T17:58:36.252Z,99701.81
2023-02-03T18:02:42.597Z,99716.44
2023-02-03T18:06:46.410Z,99728.41
2023-02-03T18:10:49.445Z,99731.72
2023-02-03T18:14:52.467Z,99724.63
2023-02-03T18:18:57.774Z,99719.34
2023-02-03T18:23:00.999Z,99715.81
2023-02-03T18:27:04.039Z,99719.25
2023-02-03T18:31:09.117Z,99725.31
2023-02-03T18:35:16.810Z,99732.31
2023-02-03T18:39:19.919Z,99728.00
2023-02-03T18:43:23.050Z,99747.31
2023-02-03T18:47:26.240Z,99754.38
2023-02-03T18:51:30.694Z,99751.00
2023-02-03T18:55:33.780Z,99759.84
2023-02-03T18:59:36.760Z,99752.00
2023-02-03T19:03:39.742Z,99752.72
2023-02-03T19:07:44.179Z,99747.28
2023-02-03T19:11:47.243Z,99763.56
2023-02-03T19:15:50.619Z,99764.13
2023-02-03T19:19:53.733Z,99760.44
2023-02-03T19:23:58.135Z,99766.25
2023-02-03T19:28:01.769Z,99771.28
2023-02-03T19:32:05.605Z,99777.19
2023-02-03T19:36:10.058Z,99771.91
2023-02-03T19:40:14.537Z,99775.97
2023-02-03T19:44:17.737Z,99785.44
2023-02-03T19:48:21.277Z,99781.97
2023-02-03T19:52:24.291Z,99773.25
2023-02-03T19:56:37.677Z,99769.75
2023-02-03T20:00:41.416Z,99774.19
2023-02-03T20:04:45.092Z,99773.38
2023-02-03T20:08:48.152Z,99774.31
2023-02-03T20:12:52.556Z,99763.09
2023-02-03T20:16:55.540Z,99761.25
2023-02-03T20:20:59.497Z,99753.50
2023-02-03T20:25:02.425Z,99741.22
2023-02-03T20:29:07.463Z,99734.34
2023-02-03T20:33:10.491Z,99732.63
2023-02-03T20:37:13.410Z,99725.72
2023-02-03T20:41:18.775Z,99724.91
2023-02-03T20:45:25.276Z,99721.56
2023-02-03T20:49:28.397Z,99720.84
2023-02-03T20:53:31.342Z,99714.91
2023-02-03T20:57:34.268Z,99713.34
2023-02-03T21:01:38.720Z,99693.44
2023-02-03T21:05:45.562Z,99690.88
2023-02-03T21:09:48.505Z,99698.00
2023-02-03T21:13:51.398Z,99692.00
2023-02-03T21:17:56.219Z,99698.19
2023-02-03T21:21:59.895Z,99696.47
2023-02-03T21:26:07.777Z,99698.34
2023-02-03T21:30:28.113Z,99701.06
2023-02-03T21:34:35.423Z,99693.25
2023-02-03T21:38:38.326Z,99695.91
2023-02-03T21:42:45.505Z,99690.72
2023-02-03T21:46:48.562Z,99683.81
2023-02-03T21:50:53.436Z,99712.63
2023-02-03T21:54:56.322Z,99715.28
2023-02-03T21:59:00.181Z,99711.84
2023-02-03T22:03:08.152Z,99726.78
2023-02-03T22:07:16.315Z,99716.34
2023-02-03T22:11:21.003Z,99737.31
2023-02-03T22:15:23.940Z,99748.75
2023-02-03T22:19:26.889Z,99736.53
2023-02-03T22:23:31.779Z,99737.44
2023-02-03T22:27:34.721Z,99761.91
2023-02-03T22:31:37.794Z,99763.69
2023-02-03T22:35:40.920Z,99771.53
2023-02-03T22:39:45.269Z,99774.22
2023-02-03T22:43:48.372Z,99791.72
2023-02-03T22:47:51.562Z,99791.78
2023-02-03T22:51:54.485Z,99771.69
2023-02-03T22:55:58.746Z,99782.19
2023-02-03T23:00:01.979Z,99784.84
2023-02-03T23:04:05.022Z,99775.28
2023-02-03T23:08:07.984Z,99784.03
2023-02-03T23:12:12.488Z,99791.03
2023-02-03T23:16:15.844Z,99784.91
2023-02-03T23:20:19.505Z,99790.19
2023-02-03T23:24:22.473Z,99790.25
2023-02-03T23:28:26.800Z,99774.56
2023-02-03T23:32:29.769Z,99766.72
2023-02-03T23:36:32.928Z,99778.06
2023-02-03T23:40:35.838Z,99785.94
2023-02-03T23:44:40.118Z,99775.47
2023-02-03T23:48:43.480Z,99780.69
2023-02-03T23:52:46.435Z,99791.16
2023-02-03T23:56:50.002Z,99773.75
